Time;durP1;ratioP1;P1;durP2;ratioP2;P2;SDS_P1;SDS_P2;PMS_P1;PMS_P2;Temp;Humidity;BMP_temperature;BMP_pressure;BME280_temperature;BME280_humidity;BME280_pressure;Samples;Min_cycle;Max_cycle;Signal;HPM_P1;HPM_P2
2022/06/15 00:01:00;;;;;;;6.20;2.03;;;;;;;16.59;61.98;100780.78;6211475;23;20377;-70
2022/06/15 00:03:28;;;;;;;3.40;1.77;;;;;;;16.51;62.76;100772.63;6211715;23;20058;-70
2022/06/15 00:06:04;;;;;;;4.72;2.03;;;;;;;16.50;63.20;100779.88;6211632;23;20043;-70
2022/06/15 00:08:29;;;;;;;3.45;1.88;;;;;;;16.42;63.68;100762.72;6211771;23;20012;-69
2022/06/15 00:10:55;;;;;;;4.28;2.05;;;;;;;16.46;63.48;100783.06;6209713;23;20078;-71
2022/06/15 00:13:21;;;;;;;5.20;2.38;;;;;;;16.47;63.02;100779.38;6185071;23;20004;-70
2022/06/15 00:15:48;;;;;;;4.13;1.92;;;;;;;16.46;62.57;100783.06;6211645;23;20023;-70
2022/06/15 00:18:13;;;;;;;3.30;2.03;;;;;;;16.40;63.03;100768.28;6211411;23;20001;-70
2022/06/15 00:20:39;;;;;;;3.40;2.15;;;;;;;16.41;63.23;100786.22;6185056;23;20008;-70
2022/06/15 00:23:04;;;;;;;3.50;2.13;;;;;;;16.33;62.58;100772.66;6211705;23;20319;-70
2022/06/15 00:25:30;;;;;;;4.30;1.90;;;;;;;16.38;62.58;100780.31;6211426;23;20016;-69
2022/06/15 00:27:55;;;;;;;2.50;1.90;;;;;;;16.33;63.61;100783.50;6211418;23;20012;-69
2022/06/15 00:30:21;;;;;;;3.70;2.08;;;;;;;16.24;63.48;100775.47;6211618;23;20044;-69
2022/06/15 00:32:48;;;;;;;2.78;1.60;;;;;;;16.28;63.49;100784.97;6211311;23;20001;-69
2022/06/15 00:35:16;;;;;;;4.45;2.00;;;;;;;16.26;63.82;100781.56;6211286;23;20036;-70
2022/06/15 00:37:41;;;;;;;4.35;2.38;;;;;;;16.22;63.47;100785.63;6211579;23;20425;-70
2022/06/15 00:40:08;;;;;;;3.00;1.75;;;;;;;16.19;63.91;100781.38;6211258;23;20031;-70
2022/06/15 00:42:34;;;;;;;2.45;1.98;;;;;;;16.20;63.43;100783.06;6211547;23;20004;-70
2022/06/15 00:45:00;;;;;;;2.42;1.80;;;;;;;16.18;63.80;100787.78;6210875;23;20012;-69
2022/06/15 00:47:30;;;;;;;8.90;2.42;;;;;;;16.07;64.07;100771.81;6210549;23;20000;-70
2022/06/15 00:50:07;;;;;;;3.80;2.20;;;;;;;16.10;64.59;100782.31;6210470;23;20437;-70
2022/06/15 00:52:36;;;;;;;4.15;2.38;;;;;;;16.09;64.63;100788.72;6210502;23;20387;-69
2022/06/15 00:55:06;;;;;;;6.22;2.03;;;;;;;16.03;65.23;100780.41;6210315;23;20401;-69
2022/06/15 00:57:32;;;;;;;6.20;2.38;;;;;;;16.00;65.02;100780.72;6210363;23;20000;-69
2022/06/15 01:00:01;;;;;;;2.30;2.10;;;;;;;16.00;64.72;100788.84;6210279;23;20085;-70
2022/06/15 01:02:27;;;;;;;7.20;2.80;;;;;;;15.99;64.55;100781.72;6210330;23;20107;-69
2022/06/15 01:05:01;;;;;;;2.35;2.15;;;;;;;15.96;64.09;100785.56;6183233;23;20001;-69
2022/06/15 01:07:57;;;;;;;2.67;2.03;;;;;;;15.96;63.45;100784.75;6210335;23;20004;-69
2022/06/15 01:10:47;;;;;;;3.65;1.80;;;;;;;15.92;63.67;100786.91;6210365;23;20004;-70
2022/06/15 01:13:40;;;;;;;5.43;2.15;;;;;;;15.89;63.59;100784.50;6210171;23;20007;-70
2022/06/15 01:16:33;;;;;;;3.28;2.25;;;;;;;15.86;64.43;100787.53;6210599;23;20095;-70
2022/06/15 01:19:21;;;;;;;3.60;2.22;;;;;;;15.81;64.58;100793.41;6210170;23;20009;-70
2022/06/15 01:22:22;;;;;;;6.00;2.30;;;;;;;15.78;64.44;100793.75;6167193;23;20096;-69
2022/06/15 01:25:26;;;;;;;4.45;1.92;;;;;;;15.77;63.90;100789.31;6161477;23;20051;-69
2022/06/15 01:28:07;;;;;;;4.13;2.70;;;;;;;15.67;65.27;100793.97;6209704;23;20017;-69
2022/06/15 01:30:32;;;;;;;4.60;2.25;;;;;;;15.64;65.93;100791.56;6210552;23;20015;-69
2022/06/15 01:33:05;;;;;;;3.25;2.08;;;;;;;15.65;64.94;100792.44;6210150;23;20036;-69
2022/06/15 01:35:50;;;;;;;6.00;2.90;;;;;;;15.60;65.75;100789.34;6210475;23;20009;-71
2022/06/15 01:38:21;;;;;;;8.40;2.72;;;;;;;15.56;66.58;100783.41;6210266;23;20437;-70
2022/06/15 01:40:55;;;;;;;3.95;2.95;;;;;;;15.52;67.42;100781.16;6210017;23;20009;-70
2022/06/15 01:43:26;;;;;;;8.50;3.00;;;;;;;15.51;68.03;100782.19;6210273;23;20028;-70
2022/06/15 01:45:53;;;;;;;5.72;3.03;;;;;;;15.44;67.89;100763.00;6178381;23;20032;-70
2022/06/15 01:48:19;;;;;;;6.65;2.90;;;;;;;15.43;67.93;100764.03;6179805;23;20009;-71
2022/06/15 01:50:51;;;;;;;4.75;2.70;;;;;;;15.48;68.11;100772.50;6180131;23;20090;-69
2022/06/15 01:53:16;;;;;;;6.47;3.10;;;;;;;15.45;68.33;100774.69;6179803;23;20072;-69
2022/06/15 01:55:51;;;;;;;7.82;3.17;;;;;;;15.40;68.41;100777.84;6180116;23;20064;-69
2022/06/15 01:58:21;;;;;;;3.58;2.60;;;;;;;15.39;68.34;100769.91;6180126;23;20419;-69
2022/06/15 02:00:57;;;;;;;5.47;2.80;;;;;;;15.32;68.47;100761.50;6180096;23;20013;-69
2022/06/15 02:03:44;;;;;;;6.78;2.75;;;;;;;15.29;68.61;100766.38;6179854;23;20005;-69
2022/06/15 02:06:20;;;;;;;4.97;2.60;;;;;;;15.27;68.83;100774.63;6179722;23;20127;-70
2022/06/15 02:09:26;;;;;;;6.13;2.95;;;;;;;15.23;69.67;100781.38;6180810;23;20059;-69
2022/06/15 02:11:55;;;;;;;5.95;2.72;;;;;;;15.21;69.24;100769.00;6173107;23;20502;-69
2022/06/15 02:14:51;;;;;;;4.78;2.97;;;;;;;15.16;69.89;100777.56;6180922;23;20374;-70
2022/06/15 02:17:23;;;;;;;4.43;2.95;;;;;;;15.14;70.02;100781.41;6157989;23;20012;-69
2022/06/15 02:19:55;;;;;;;3.80;3.00;;;;;;;15.11;70.70;100785.28;6181154;23;20008;-69
2022/06/15 02:22:24;;;;;;;7.38;3.42;;;;;;;15.09;70.89;100789.16;6182783;23;20437;-70
2022/06/15 02:24:55;;;;;;;4.32;2.90;;;;;;;15.04;70.77;100781.50;6182645;23;20483;-70
2022/06/15 02:27:23;;;;;;;4.30;2.92;;;;;;;14.97;70.68;100780.41;6182645;23;20013;-70
2022/06/15 02:29:52;;;;;;;4.20;2.75;;;;;;;14.99;70.41;100775.69;6182585;23;20510;-68
2022/06/15 02:32:18;;;;;;;8.45;2.85;;;;;;;14.98;70.92;100787.50;6182103;23;20001;-70
2022/06/15 02:34:44;;;;;;;7.00;3.08;;;;;;;14.96;71.04;100794.06;6182305;23;20083;-69
2022/06/15 02:37:10;;;;;;;5.30;3.08;;;;;;;14.94;70.88;100791.50;6182449;23;19997;-70
2022/06/15 02:39:37;;;;;;;4.72;3.15;;;;;;;14.95;70.82;100795.03;6182828;23;20092;-69
2022/06/15 02:42:29;;;;;;;5.18;2.78;;;;;;;14.92;70.13;100793.50;6182408;23;20059;-70
2022/06/15 02:44:59;;;;;;;3.80;2.60;;;;;;;14.90;70.35;100794.66;6182290;23;20084;-70
2022/06/15 02:47:28;;;;;;;7.70;3.30;;;;;;;14.85;70.76;100796.94;6182350;23;20044;-70
2022/06/15 02:49:54;;;;;;;6.82;3.10;;;;;;;14.77;70.93;100789.59;6181736;23;20461;-70
2022/06/15 02:52:22;;;;;;;6.00;2.88;;;;;;;14.77;71.22;100795.00;6180865;23;20009;-70
2022/06/15 02:54:51;;;;;;;6.00;2.50;;;;;;;14.79;70.78;100795.69;6182062;23;19993;-69
2022/06/15 02:57:18;;;;;;;7.88;3.00;;;;;;;14.76;70.95;100796.00;6181953;23;20491;-69
2022/06/15 02:59:45;;;;;;;6.57;2.97;;;;;;;14.73;71.39;100806.22;6182187;23;20430;-70
2022/06/15 03:02:14;;;;;;;6.30;3.17;;;;;;;14.70;71.71;100804.69;6182064;23;20058;-69
2022/06/15 03:04:41;;;;;;;4.90;2.97;;;;;;;14.69;71.43;100813.81;6181895;23;20009;-69
2022/06/15 03:07:07;;;;;;;4.53;2.40;;;;;;;14.61;70.44;100794.78;6181712;23;20764;-69
2022/06/15 03:09:33;;;;;;;4.15;2.65;;;;;;;14.69;69.97;100813.81;6182210;23;20032;-69
2022/06/15 03:11:58;;;;;;;6.35;3.47;;;;;;;14.49;71.63;100790.59;6182073;23;20072;-70
2022/06/15 03:14:23;;;;;;;8.57;3.40;;;;;;;14.61;72.46;100815.53;6181808;23;20442;-70
2022/06/15 03:16:49;;;;;;;6.32;3.30;;;;;;;14.56;73.34;100820.53;6182183;23;20001;-70
2022/06/15 03:19:15;;;;;;;8.18;3.20;;;;;;;14.57;73.21;100828.47;6182018;23;20041;-70
2022/06/15 03:21:40;;;;;;;5.45;3.05;;;;;;;14.56;72.96;100823.22;6182083;23;20429;-70
2022/06/15 03:24:06;;;;;;;7.40;3.30;;;;;;;14.49;73.37;100819.41;6181618;23;20005;-69
2022/06/15 03:26:33;;;;;;;6.15;3.00;;;;;;;14.57;72.94;100827.66;6181646;23;20041;-69
2022/06/15 03:28:59;;;;;;;7.85;3.03;;;;;;;14.55;73.19;100821.53;6181661;23;20008;-69
2022/06/15 03:31:27;;;;;;;9.35;3.42;;;;;;;14.59;72.60;100826.50;6181930;23;20300;-69
2022/06/15 03:33:53;;;;;;;11.63;3.33;;;;;;;14.66;72.76;100821.34;6181809;23;20004;-69
2022/06/15 03:36:19;;;;;;;7.85;3.50;;;;;;;14.79;72.32;100819.13;6181524;23;20426;-70
2022/06/15 03:38:45;;;;;;;8.13;3.20;;;;;;;14.87;71.86;100822.78;6181508;23;20005;-70
2022/06/15 03:41:11;;;;;;;8.55;3.10;;;;;;;14.94;71.35;100818.53;6181744;23;20473;-69
2022/06/15 03:43:37;;;;;;;6.78;3.53;;;;;;;15.09;70.83;100832.38;6181633;23;20055;-69
2022/06/15 03:46:02;;;;;;;11.57;3.53;;;;;;;15.17;70.66;100827.91;6194136;23;20020;-70
2022/06/15 03:48:28;;;;;;;4.63;2.95;;;;;;;15.26;70.16;100821.56;6208513;23;20036;-69
2022/06/15 03:50:53;;;;;;;5.38;3.08;;;;;;;15.36;69.73;100818.81;6211651;23;20012;-70
2022/06/15 03:53:19;;;;;;;8.93;2.85;;;;;;;15.48;69.18;100812.22;6211473;23;20008;-70
2022/06/15 03:55:45;;;;;;;8.18;3.05;;;;;;;15.63;68.60;100819.63;6211762;23;20016;-70
2022/06/15 03:58:17;;;;;;;9.80;2.88;;;;;;;15.73;68.37;100815.00;6211727;23;20000;-70
2022/06/15 04:00:43;;;;;;;10.27;3.53;;;;;;;15.86;67.71;100815.44;6211938;23;20314;-70
2022/06/15 04:03:09;;;;;;;7.75;3.15;;;;;;;15.94;67.22;100810.09;6185274;23;20000;-70
2022/06/15 04:05:42;;;;;;;7.45;3.40;;;;;;;16.15;66.71;100811.63;6211889;23;20027;-70
2022/06/15 04:10:58;;;;;;;5.13;3.05;;;;;;;16.41;65.42;100804.34;6211897;23;20514;-70
2022/06/15 04:13:24;;;;;;;4.57;2.70;;;;;;;16.42;64.86;100787.09;6211687;23;20036;-70
2022/06/15 04:15:49;;;;;;;4.88;2.55;;;;;;;16.59;64.43;100797.03;6211822;23;20010;-70
2022/06/15 04:18:15;;;;;;;5.78;3.00;;;;;;;16.64;63.83;100791.97;6211512;23;20004;-70
2022/06/15 04:20:41;;;;;;;6.32;2.67;;;;;;;16.94;63.15;100823.94;6185360;23;20336;-70
2022/06/15 04:23:17;;;;;;;4.53;2.80;;;;;;;17.02;63.02;100813.13;6184757;23;20460;-70
2022/06/15 04:25:57;;;;;;;4.13;2.55;;;;;;;17.18;62.29;100821.31;6211700;23;20005;-70
2022/06/15 04:28:24;;;;;;;5.85;2.50;;;;;;;17.23;61.90;100811.69;6211570;23;20005;-70
2022/06/15 04:30:50;;;;;;;3.45;2.15;;;;;;;17.34;61.83;100813.22;6211544;23;20012;-70
2022/06/15 04:33:16;;;;;;;3.78;2.40;;;;;;;17.42;62.00;100805.13;6211414;23;20440;-70
2022/06/15 04:35:43;;;;;;;7.68;2.42;;;;;;;17.60;61.82;100813.97;6211652;23;20008;-70
2022/06/15 04:38:10;;;;;;;9.68;3.45;;;;;;;17.72;61.05;100818.94;6184565;23;20004;-70
2022/06/15 04:40:37;;;;;;;5.22;2.30;;;;;;;17.71;60.74;100797.41;6211579;23;20001;-70
2022/06/15 04:43:07;;;;;;;4.38;2.33;;;;;;;17.87;60.12;100808.25;6211337;23;20004;-70
2022/06/15 04:45:33;;;;;;;4.10;2.75;;;;;;;18.05;60.30;100825.19;6211092;23;20013;-70
2022/06/15 04:47:58;;;;;;;9.30;2.92;;;;;;;18.11;60.46;100808.25;6211030;23;20084;-70
2022/06/15 04:50:24;;;;;;;7.00;2.60;;;;;;;18.28;60.39;100817.22;6211294;23;20000;-70
2022/06/15 04:52:49;;;;;;;2.65;2.25;;;;;;;18.38;60.07;100812.50;6211471;23;20092;-70
2022/06/15 04:55:18;;;;;;;3.45;1.88;;;;;;;18.49;59.93;100818.41;6211149;23;20075;-69
2022/06/15 04:57:45;;;;;;;4.95;2.38;;;;;;;18.56;59.47;100810.41;6184744;23;20005;-70
2022/06/15 05:00:15;;;;;;;5.22;2.35;;;;;;;18.74;58.95;100820.03;6211122;23;20008;-70
2022/06/15 05:02:40;;;;;;;9.63;2.72;;;;;;;18.85;58.74;100811.50;6211065;23;20039;-70
2022/06/15 05:05:06;;;;;;;6.95;2.28;;;;;;;19.00;58.40;100812.47;6211392;23;20450;-69
2022/06/15 05:07:32;;;;;;;8.48;2.20;;;;;;;19.20;58.15;100819.16;6184464;23;20480;-70
2022/06/15 05:09:57;;;;;;;7.32;2.00;;;;;;;19.27;57.28;100813.88;6211003;23;20011;-70
2022/06/15 05:12:23;;;;;;;4.82;2.58;;;;;;;19.34;57.28;100814.84;6211300;23;20004;-70
2022/06/15 05:14:49;;;;;;;5.18;2.47;;;;;;;19.49;56.66;100818.50;6211304;23;20001;-70
2022/06/15 05:17:20;;;;;;;6.13;2.28;;;;;;;19.60;56.34;100810.78;6179067;23;20159;-70
2022/06/15 05:19:46;;;;;;;5.70;2.28;;;;;;;19.82;55.94;100819.97;6211060;23;20000;-70
2022/06/15 05:22:12;;;;;;;9.25;2.30;;;;;;;19.88;55.34;100820.09;6211378;23;20012;-70
2022/06/15 05:24:37;;;;;;;10.20;2.78;;;;;;;20.02;54.32;100821.16;6211347;23;20004;-70
2022/06/15 05:27:04;;;;;;;6.25;2.45;;;;;;;20.13;54.07;100823.50;6184752;23;20035;-70
2022/06/15 05:29:30;;;;;;;5.10;2.50;;;;;;;20.24;53.73;100825.78;6211463;23;20008;-70
2022/06/15 05:31:56;;;;;;;7.40;2.47;;;;;;;20.38;53.49;100822.25;6210749;23;20005;-70
2022/06/15 05:34:22;;;;;;;5.88;2.10;;;;;;;20.54;53.33;100826.69;6211257;23;20008;-70
2022/06/15 05:36:48;;;;;;;7.05;2.30;;;;;;;20.56;52.70;100803.66;6210858;23;20031;-70
2022/06/15 05:39:14;;;;;;;7.90;2.45;;;;;;;20.71;52.07;100812.69;6211151;23;20333;-71
2022/06/15 05:41:40;;;;;;;11.50;2.65;;;;;;;20.70;52.01;100808.25;6211099;23;20010;-70
2022/06/15 05:46:34;;;;;;;6.78;2.40;;;;;;;20.90;51.78;100830.34;6214078;23;20017;-66
2022/06/15 05:49:01;;;;;;;7.22;2.80;;;;;;;20.95;51.46;100826.06;6184040;23;20099;-67
2022/06/15 05:51:27;;;;;;;5.15;2.70;;;;;;;21.08;51.06;100831.69;6186585;23;20418;-67
2022/06/15 05:53:53;;;;;;;7.13;2.40;;;;;;;21.22;51.53;100825.34;6213154;23;20016;-67
2022/06/15 05:56:19;;;;;;;4.38;2.25;;;;;;;21.39;50.90;100826.00;6212843;23;20004;-71
2022/06/15 05:58:45;;;;;;;11.05;2.60;;;;;;;21.33;50.79;100799.47;6213420;23;20008;-71
2022/06/15 06:01:20;;;;;;;6.93;2.40;;;;;;;21.56;50.79;100831.03;6212543;23;20416;-71
2022/06/15 06:03:45;;;;;;;8.55;3.28;;;;;;;21.70;50.46;100829.31;6210727;23;20050;-71
2022/06/15 06:06:11;;;;;;;8.73;2.70;;;;;;;21.83;49.98;100835.75;6211366;23;20004;-70
2022/06/15 06:08:37;;;;;;;9.45;3.10;;;;;;;21.95;49.73;100839.66;6212782;23;20012;-71
2022/06/15 06:11:03;;;;;;;6.22;2.28;;;;;;;22.07;49.06;100842.72;6212838;23;20499;-71
2022/06/15 06:13:28;;;;;;;4.47;2.10;;;;;;;22.16;48.90;100830.63;6212685;23;20004;-71
2022/06/15 06:15:55;;;;;;;6.28;2.60;;;;;;;22.30;48.39;100841.47;6212867;23;20319;-71
2022/06/15 06:18:22;;;;;;;7.18;2.30;;;;;;;22.44;48.26;100852.50;6212697;23;20007;-71
2022/06/15 06:20:47;;;;;;;6.38;2.38;;;;;;;22.54;47.83;100859.38;6212846;23;20031;-70
2022/06/15 06:23:14;;;;;;;4.60;2.38;;;;;;;22.61;47.12;100859.41;6211316;23;20013;-70
2022/06/15 06:25:41;;;;;;;5.20;2.30;;;;;;;22.68;46.50;100844.75;6212892;23;20028;-71
2022/06/15 06:28:22;;;;;;;5.95;2.45;;;;;;;22.86;45.76;100850.53;6212276;23;20020;-71
2022/06/15 06:30:47;;;;;;;6.45;2.28;;;;;;;22.96;45.75;100853.75;6212781;23;20032;-71
2022/06/15 06:33:13;;;;;;;6.25;2.58;;;;;;;23.02;45.46;100863.88;6212776;23;20430;-71
2022/06/15 06:35:38;;;;;;;2.88;2.10;;;;;;;23.14;45.47;100866.91;6185949;23;20429;-70
2022/06/15 06:38:04;;;;;;;6.65;2.45;;;;;;;23.25;45.27;100860.91;6212387;23;20514;-71
2022/06/15 06:40:29;;;;;;;4.72;2.33;;;;;;;23.38;44.69;100859.03;6212613;23;20075;-70
2022/06/15 06:42:55;;;;;;;7.38;2.58;;;;;;;23.49;44.64;100857.63;6212390;23;20005;-71
2022/06/15 06:45:20;;;;;;;7.35;2.63;;;;;;;23.58;44.16;100862.72;6212196;23;20083;-70
2022/06/15 06:47:46;;;;;;;7.07;2.20;;;;;;;23.60;43.48;100857.88;6186027;23;20088;-71
2022/06/15 06:50:11;;;;;;;5.57;2.20;;;;;;;23.68;43.50;100863.19;6185497;23;20375;-71
2022/06/15 06:52:37;;;;;;;6.38;1.90;;;;;;;23.73;42.80;100854.34;6185589;23;20517;-71
2022/06/15 06:55:03;;;;;;;4.38;1.88;;;;;;;23.79;42.26;100848.88;6210590;23;20024;-71
2022/06/15 06:57:28;;;;;;;8.00;2.05;;;;;;;23.88;41.85;100861.34;6212125;23;20004;-71
2022/06/15 06:59:54;;;;;;;2.97;2.00;;;;;;;23.95;41.70;100869.59;6212350;23;20062;-71
2022/06/15 07:02:19;;;;;;;6.80;2.03;;;;;;;24.04;42.07;100857.38;6211759;23;20385;-71
2022/06/15 07:04:44;;;;;;;4.75;2.42;;;;;;;24.17;41.78;100858.25;6185979;23;20417;-71
2022/06/15 07:07:10;;;;;;;3.30;1.80;;;;;;;24.27;41.26;100858.66;6212095;23;20008;-71
2022/06/15 07:09:35;;;;;;;2.58;1.60;;;;;;;24.38;40.89;100858.03;6212482;23;20008;-71
2022/06/15 07:12:03;;;;;;;3.38;1.85;;;;;;;24.37;40.55;100839.91;6211895;23;20004;-71
2022/06/15 07:14:29;;;;;;;6.65;1.92;;;;;;;24.50;40.47;100854.69;6212316;23;20322;-71
2022/06/15 07:16:54;;;;;;;3.67;2.05;;;;;;;24.60;40.21;100855.09;6212154;23;20071;-71
2022/06/15 07:19:20;;;;;;;5.80;1.88;;;;;;;24.71;39.83;100857.22;6211941;23;20014;-71
2022/06/15 07:21:45;;;;;;;5.75;1.90;;;;;;;24.71;40.03;100851.72;6212239;23;20028;-71
2022/06/15 07:24:10;;;;;;;2.15;1.40;;;;;;;24.84;39.83;100858.03;6212112;23;20001;-71
2022/06/15 07:26:42;;;;;;;2.20;1.50;;;;;;;24.92;39.31;100851.50;6211898;23;20088;-71
2022/06/15 07:29:14;;;;;;;3.95;1.70;;;;;;;25.04;38.90;100861.59;6211883;23;20000;-72
2022/06/15 07:31:45;;;;;;;5.55;1.98;;;;;;;25.09;39.01;100866.44;6185348;23;20327;-71
2022/06/15 07:34:11;;;;;;;5.13;1.70;;;;;;;25.06;39.09;100845.75;6185282;23;20074;-71
2022/06/15 07:36:39;;;;;;;4.57;1.65;;;;;;;25.19;39.01;100866.81;6212056;23;19997;-71
2022/06/15 07:39:05;;;;;;;3.22;1.65;;;;;;;25.22;38.70;100850.78;6211800;23;20005;-71
2022/06/15 07:41:32;;;;;;;2.20;1.30;;;;;;;25.28;38.86;100851.81;6185387;23;20012;-72
2022/06/15 07:43:57;;;;;;;9.18;2.05;;;;;;;25.28;38.86;100846.31;6211739;23;20031;-72
2022/06/15 07:46:24;;;;;;;2.65;1.58;;;;;;;25.39;38.58;100854.75;6210147;23;20020;-71
2022/06/15 07:51:40;;;;;;;4.10;1.60;;;;;;;25.61;37.83;100858.03;6211896;23;20390;-72
2022/06/15 07:54:09;;;;;;;4.50;1.80;;;;;;;25.67;37.55;100852.47;6211444;23;20008;-71
2022/06/15 07:56:35;;;;;;;5.60;1.90;;;;;;;25.73;37.52;100850.78;6185280;23;20008;-72
2022/06/15 07:59:01;;;;;;;7.70;1.75;;;;;;;25.77;37.27;100835.53;6211808;23;20092;-71
2022/06/15 08:01:27;;;;;;;7.22;1.63;;;;;;;25.86;37.17;100847.94;6211679;23;20040;-72
2022/06/15 08:03:54;;;;;;;3.83;1.55;;;;;;;25.91;37.41;100851.72;6211845;23;20055;-72
2022/06/15 08:06:22;;;;;;;9.45;1.88;;;;;;;25.86;37.06;100842.44;6211634;23;20026;-71
2022/06/15 08:08:47;;;;;;;6.43;1.70;;;;;;;25.88;36.40;100841.16;6212007;23;20031;-71
2022/06/15 08:11:14;;;;;;;1.67;1.42;;;;;;;25.79;36.81;100834.22;6185104;23;20017;-71
2022/06/15 08:13:40;;;;;;;2.97;1.77;;;;;;;25.92;36.97;100841.56;6211216;23;20005;-71
2022/06/15 08:16:07;;;;;;;4.10;1.60;;;;;;;25.98;36.92;100846.19;6211640;23;20008;-71
2022/06/15 08:18:39;;;;;;;4.78;1.63;;;;;;;26.09;37.03;100849.06;6184716;23;20017;-72
2022/06/15 08:21:17;;;;;;;2.38;1.10;;;;;;;26.18;37.75;100853.25;6211437;23;20008;-71
2022/06/15 08:23:46;;;;;;;2.60;1.80;;;;;;;26.18;36.27;100835.91;6211629;23;20463;-71
2022/06/15 08:26:17;;;;;;;9.05;1.88;;;;;;;26.23;36.02;100845.19;6211545;23;20337;-72
2022/06/15 08:28:47;;;;;;;5.50;1.83;;;;;;;26.28;36.52;100845.34;6211632;23;20016;-71
2022/06/15 08:31:13;;;;;;;5.07;2.22;;;;;;;26.31;35.96;100846.81;6211296;23;20008;-71
2022/06/15 08:33:40;;;;;;;6.07;1.60;;;;;;;26.34;36.12;100846.34;6184591;23;20095;-72
2022/06/15 08:36:07;;;;;;;2.30;1.45;;;;;;;26.29;35.17;100837.94;6211305;23;20000;-71
2022/06/15 08:38:33;;;;;;;3.80;1.52;;;;;;;26.39;35.86;100843.78;6184955;23;20139;-72
2022/06/15 08:41:03;;;;;;;3.88;1.20;;;;;;;26.41;35.26;100845.22;6211396;23;20075;-72
2022/06/15 08:43:47;;;;;;;2.92;1.38;;;;;;;26.40;35.13;100838.03;6211456;23;20007;-72
2022/06/15 08:46:20;;;;;;;3.92;1.20;;;;;;;26.45;35.08;100837.38;6204511;23;20027;-72
2022/06/15 08:48:59;;;;;;;4.40;1.70;;;;;;;26.48;35.10;100835.00;6181315;23;20016;-72
2022/06/15 08:51:38;;;;;;;4.22;1.50;;;;;;;26.54;35.35;100841.53;6181426;23;20080;-71
2022/06/15 08:54:33;;;;;;;4.07;1.40;;;;;;;26.39;34.40;100806.09;6180947;23;20008;-72
2022/06/15 08:57:11;;;;;;;1.90;1.17;;;;;;;26.56;34.85;100828.38;6181204;23;20063;-72
2022/06/15 08:59:46;;;;;;;3.20;1.58;;;;;;;26.67;34.71;100830.44;6181403;23;20020;-72
2022/06/15 09:02:31;;;;;;;3.38;1.60;;;;;;;26.66;34.20;100842.50;6180948;23;20415;-72
2022/06/15 09:05:39;;;;;;;2.17;1.63;;;;;;;26.60;34.10;100831.53;6181395;23;20221;-72
2022/06/15 09:08:27;;;;;;;4.80;1.55;;;;;;;26.68;34.28;100834.00;6175804;23;20067;-72
2022/06/15 09:11:37;;;;;;;2.13;1.20;;;;;;;26.68;34.28;100823.84;6181163;23;20019;-71
2022/06/15 09:14:44;;;;;;;6.70;1.77;;;;;;;26.75;34.21;100824.63;6180826;23;20039;-71
2022/06/15 09:17:21;;;;;;;3.45;1.50;;;;;;;26.77;34.24;100822.50;6181068;23;20111;-71
2022/06/15 09:20:02;;;;;;;2.63;1.45;;;;;;;26.75;34.40;100816.38;6181510;23;20040;-71
2022/06/15 09:22:37;;;;;;;2.50;1.40;;;;;;;26.84;34.34;100828.78;6181258;23;20013;-71
2022/06/15 09:25:18;;;;;;;4.78;1.77;;;;;;;26.87;34.22;100827.47;6181000;23;20084;-71
2022/06/15 09:27:59;;;;;;;4.05;1.75;;;;;;;26.88;33.98;100827.25;6180963;23;20062;-71
2022/06/15 09:30:31;;;;;;;5.05;1.73;;;;;;;26.79;34.26;100823.09;6181457;23;20015;-71
2022/06/15 09:33:28;;;;;;;4.90;1.30;;;;;;;26.81;33.94;100828.38;6181248;23;20517;-71
2022/06/15 09:36:02;;;;;;;3.72;1.63;;;;;;;26.87;34.16;100828.31;6181035;23;20005;-72
2022/06/15 09:38:28;;;;;;;;;;;;;;;26.90;34.01;100827.00;6181519;23;20072;-72
2022/06/15 09:41:09;;;;;;;5.43;1.63;;;;;;;26.96;33.27;100824.19;6181038;23;19971;-72
2022/06/15 09:43:59;;;;;;;1.40;1.10;;;;;;;27.00;33.40;100814.41;6181063;23;20169;-72
2022/06/15 09:46:31;;;;;;;5.75;1.48;;;;;;;27.08;33.21;100816.84;6198481;23;20004;-71
2022/06/15 09:49:09;;;;;;;2.88;1.40;;;;;;;27.03;33.17;100819.44;6210623;23;20418;-72
2022/06/15 09:52:13;;;;;;;4.03;1.38;;;;;;;27.03;33.29;100819.44;6210144;23;20000;-71
2022/06/15 09:54:52;;;;;;;2.60;1.37;;;;;;;27.05;33.60;100822.78;6210157;23;20430;-71
2022/06/15 09:57:19;;;;;;;6.07;1.80;;;;;;;27.07;33.25;100815.16;6210082;23;20077;-71
2022/06/15 09:59:44;;;;;;;4.50;1.48;;;;;;;27.08;32.93;100813.25;6210191;23;20017;-71
2022/06/15 10:02:35;;;;;;;4.15;1.67;;;;;;;27.14;33.08;100809.59;6209903;23;20091;-71
2022/06/15 10:05:04;;;;;;;6.18;1.70;;;;;;;27.12;33.39;100807.06;6195545;23;20615;-72
2022/06/15 10:07:43;;;;;;;6.53;2.00;;;;;;;27.16;33.00;100804.66;6210036;23;20011;-71
2022/06/15 10:10:17;;;;;;;5.88;1.45;;;;;;;27.16;33.56;100800.00;6209863;23;20456;-71
2022/06/15 10:13:01;;;;;;;4.10;1.50;;;;;;;27.15;33.63;100794.72;6210071;23;20114;-72
2022/06/15 10:15:42;;;;;;;5.38;1.65;;;;;;;27.23;33.23;100803.56;6209982;23;20079;-72
2022/06/15 10:18:31;;;;;;;3.97;1.30;;;;;;;27.24;32.89;100791.44;6210045;23;20070;-71
2022/06/15 10:21:08;;;;;;;4.15;1.63;;;;;;;27.25;32.66;100798.66;6183639;23;20016;-72
2022/06/15 10:24:06;;;;;;;4.13;1.40;;;;;;;27.27;32.69;100790.19;6209880;23;20483;-72
2022/06/15 10:26:47;;;;;;;3.65;1.50;;;;;;;27.32;32.21;100793.91;6209852;23;20062;-72
2022/06/15 10:29:15;;;;;;;3.05;1.35;;;;;;;27.32;31.64;100784.78;6209777;23;20062;-72
2022/06/15 10:32:24;;;;;;;2.60;1.23;;;;;;;27.43;31.38;100784.84;6209906;23;20001;-72
2022/06/15 10:34:50;;;;;;;3.47;1.20;;;;;;;27.40;31.18;100779.78;6205573;23;20009;-73
2022/06/15 10:37:25;;;;;;;3.75;1.30;;;;;;;27.37;30.92;100777.50;6210584;23;20090;-73
2022/06/15 10:39:54;;;;;;;4.00;1.17;;;;;;;27.38;31.32;100773.69;6211837;23;20011;-73
2022/06/15 10:42:24;;;;;;;5.18;1.23;;;;;;;27.40;31.90;100770.72;6184675;23;20005;-72
2022/06/15 10:44:56;;;;;;;1.38;1.10;;;;;;;27.39;31.41;100764.34;6211929;23;20333;-72
2022/06/15 10:47:26;;;;;;;2.95;1.10;;;;;;;27.46;31.53;100765.09;6211385;23;20016;-72
2022/06/15 10:49:58;;;;;;;3.70;1.67;;;;;;;27.48;31.08;100762.09;6211919;23;20014;-72
2022/06/15 10:52:37;;;;;;;6.25;1.75;;;;;;;27.48;31.99;100765.72;6212445;23;20054;-71
2022/06/15 11:02:08;;;;;;;2.38;1.15;;;;;;;27.51;31.13;100768.00;6211639;23;20019;-72
2022/06/15 11:04:52;;;;;;;2.90;1.10;;;;;;;27.42;30.76;100768.53;6212349;23;20036;-73
2022/06/15 11:07:23;;;;;;;5.72;1.65;;;;;;;27.44;30.95;100760.91;6185275;23;20032;-75
2022/06/15 11:09:55;;;;;;;9.30;1.63;;;;;;;27.42;30.70;100757.53;6212202;23;20113;-73
2022/06/15 11:12:25;;;;;;;8.45;1.50;;;;;;;27.41;30.38;100764.13;6212200;23;20407;-73
2022/06/15 11:15:14;;;;;;;4.30;1.40;;;;;;;27.37;30.54;100763.72;6212211;23;20012;-73
2022/06/15 11:18:03;;;;;;;3.38;1.00;;;;;;;27.35;30.75;100757.63;6212345;23;20337;-74
2022/06/15 11:20:53;;;;;;;1.25;0.93;;;;;;;27.40;30.00;100757.75;6212236;23;20084;-73
2022/06/15 11:23:24;;;;;;;1.20;1.00;;;;;;;27.40;29.33;100757.75;6211717;23;20032;-72
2022/06/15 11:25:51;;;;;;;7.78;1.20;;;;;;;27.38;29.13;100748.03;6212092;23;20009;-72
2022/06/15 11:28:26;;;;;;;2.25;1.25;;;;;;;27.37;30.02;100744.44;6211685;23;20023;-73
2022/06/15 11:30:59;;;;;;;1.77;1.00;;;;;;;27.40;29.40;100749.50;6212114;23;20135;-73
2022/06/15 11:33:37;;;;;;;2.88;1.08;;;;;;;27.43;29.56;100748.16;6211782;23;20019;-72
2022/06/15 11:36:16;;;;;;;1.42;1.10;;;;;;;27.47;29.50;100747.47;6212422;23;20338;-73
2022/06/15 11:39:09;;;;;;;2.17;0.77;;;;;;;27.52;29.13;100747.63;6211914;23;20317;-72
2022/06/15 11:41:44;;;;;;;7.57;1.35;;;;;;;27.53;29.07;100746.53;6212143;23;20569;-72
2022/06/15 11:44:21;;;;;;;1.67;1.23;;;;;;;27.50;28.54;100738.75;6212039;23;20000;-73
2022/06/15 11:47:08;;;;;;;1.85;1.20;;;;;;;27.49;28.98;100727.94;6211743;23;20004;-73
2022/06/15 11:50:04;;;;;;;2.03;1.08;;;;;;;27.49;29.82;100737.06;6212089;23;20028;-72
2022/06/15 11:52:46;;;;;;;2.85;1.35;;;;;;;27.56;30.29;100736.94;6212273;23;20022;-73
2022/06/15 11:55:39;;;;;;;4.10;1.20;;;;;;;27.59;29.36;100730.97;6211615;23;20429;-72
2022/06/15 11:58:25;;;;;;;3.80;1.30;;;;;;;27.61;29.17;100732.44;6211611;23;20035;-73
2022/06/15 12:00:56;;;;;;;3.08;1.30;;;;;;;27.55;29.18;100729.78;6212082;23;20013;-72